sensor_id;sensor_type;location;lat;lon;timestamp;pressure;altitude;pressure_sealevel;temperature;humidity
60874;BME280;46715;40.642;-7.920;2023-07-13T00:01:35;96694.72;;;16.32;98.46
60874;BME280;46715;40.642;-7.920;2023-07-13T00:03:36;96684.88;;;16.38;98.70
60874;BME280;46715;40.642;-7.920;2023-07-13T00:05:36;96677.47;;;16.40;98.48
60874;BME280;46715;40.642;-7.920;2023-07-13T00:07:37;96683.78;;;16.39;97.92
60874;BME280;46715;40.642;-7.920;2023-07-13T00:09:38;96686.56;;;16.34;97.83
60874;BME280;46715;40.642;-7.920;2023-07-13T00:11:39;96685.66;;;16.25;98.01
60874;BME280;46715;40.642;-7.920;2023-07-13T00:13:41;96673.97;;;16.17;98.55
60874;BME280;46715;40.642;-7.920;2023-07-13T00:15:42;96692.66;;;16.15;99.41
60874;BME280;46715;40.642;-7.920;2023-07-13T00:17:43;96680.41;;;16.11;100.00
60874;BME280;46715;40.642;-7.920;2023-07-13T00:19:47;96678.84;;;16.10;100.00
60874;BME280;46715;40.642;-7.920;2023-07-13T00:21:48;96669.38;;;16.09;100.00
60874;BME280;46715;40.642;-7.920;2023-07-13T00:23:49;96673.41;;;16.06;100.00
60874;BME280;46715;40.642;-7.920;2023-07-13T00:25:50;96678.16;;;16.04;100.00
60874;BME280;46715;40.642;-7.920;2023-07-13T00:27:51;96669.28;;;16.00;100.00
60874;BME280;46715;40.642;-7.920;2023-07-13T00:29:52;96663.84;;;15.96;100.00
60874;BME280;46715;40.642;-7.920;2023-07-13T00:31:53;96657.78;;;15.96;100.00
60874;BME280;46715;40.642;-7.920;2023-07-13T00:33:55;96658.16;;;16.03;100.00
60874;BME280;46715;40.642;-7.920;2023-07-13T00:35:56;96654.38;;;16.09;100.00
60874;BME280;46715;40.642;-7.920;2023-07-13T00:37:57;96651.66;;;16.14;100.00
60874;BME280;46715;40.642;-7.920;2023-07-13T00:39:58;96651.38;;;16.02;100.00
60874;BME280;46715;40.642;-7.920;2023-07-13T00:42:00;96647.56;;;15.94;100.00
60874;BME280;46715;40.642;-7.920;2023-07-13T00:44:01;96654.00;;;15.88;100.00
60874;BME280;46715;40.642;-7.920;2023-07-13T00:46:10;96643.47;;;15.88;100.00
60874;BME280;46715;40.642;-7.920;2023-07-13T00:48:17;96644.72;;;15.91;100.00
60874;BME280;46715;40.642;-7.920;2023-07-13T00:50:20;96642.38;;;15.89;100.00
60874;BME280;46715;40.642;-7.920;2023-07-13T00:52:23;96641.91;;;15.87;100.00
60874;BME280;46715;40.642;-7.920;2023-07-13T00:54:45;96636.16;;;15.85;100.00
60874;BME280;46715;40.642;-7.920;2023-07-13T00:56:47;96636.25;;;15.80;100.00
60874;BME280;46715;40.642;-7.920;2023-07-13T00:58:49;96630.56;;;15.73;100.00
60874;BME280;46715;40.642;-7.920;2023-07-13T01:00:50;96626.75;;;15.65;100.00
60874;BME280;46715;40.642;-7.920;2023-07-13T01:02:52;96628.34;;;15.66;100.00
60874;BME280;46715;40.642;-7.920;2023-07-13T01:04:53;96630.84;;;15.71;100.00
60874;BME280;46715;40.642;-7.920;2023-07-13T01:06:54;96626.50;;;15.80;100.00
60874;BME280;46715;40.642;-7.920;2023-07-13T01:08:56;96632.63;;;15.76;100.00
60874;BME280;46715;40.642;-7.920;2023-07-13T01:10:59;96636.09;;;15.71;100.00
60874;BME280;46715;40.642;-7.920;2023-07-13T01:12:59;96636.59;;;15.59;100.00
60874;BME280;46715;40.642;-7.920;2023-07-13T01:15:01;96635.69;;;15.50;100.00
60874;BME280;46715;40.642;-7.920;2023-07-13T01:17:03;96629.75;;;15.44;100.00
60874;BME280;46715;40.642;-7.920;2023-07-13T01:19:16;96632.94;;;15.41;100.00
60874;BME280;46715;40.642;-7.920;2023-07-13T01:21:19;96631.59;;;15.44;100.00
60874;BME280;46715;40.642;-7.920;2023-07-13T01:23:20;96624.50;;;15.44;100.00
60874;BME280;46715;40.642;-7.920;2023-07-13T01:25:22;96618.75;;;15.42;100.00
60874;BME280;46715;40.642;-7.920;2023-07-13T01:27:25;96622.72;;;15.40;100.00
60874;BME280;46715;40.642;-7.920;2023-07-13T01:29:26;96614.06;;;15.39;100.00
60874;BME280;46715;40.642;-7.920;2023-07-13T01:31:27;96622.72;;;15.40;100.00
60874;BME280;46715;40.642;-7.920;2023-07-13T01:33:27;96618.16;;;15.45;100.00
60874;BME280;46715;40.642;-7.920;2023-07-13T01:35:28;96610.00;;;15.47;100.00
60874;BME280;46715;40.642;-7.920;2023-07-13T01:37:29;96623.91;;;15.47;100.00
60874;BME280;46715;40.642;-7.920;2023-07-13T01:39:33;96621.38;;;15.42;100.00
60874;BME280;46715;40.642;-7.920;2023-07-13T01:41:34;96616.97;;;15.38;100.00
60874;BME280;46715;40.642;-7.920;2023-07-13T01:43:35;96612.00;;;15.36;100.00
60874;BME280;46715;40.642;-7.920;2023-07-13T01:45:36;96615.69;;;15.35;100.00
60874;BME280;46715;40.642;-7.920;2023-07-13T01:47:37;96606.28;;;15.34;100.00
60874;BME280;46715;40.642;-7.920;2023-07-13T01:49:38;96601.88;;;15.29;100.00
60874;BME280;46715;40.642;-7.920;2023-07-13T01:51:41;96602.16;;;15.28;100.00
60874;BME280;46715;40.642;-7.920;2023-07-13T01:53:42;96603.50;;;15.25;100.00
60874;BME280;46715;40.642;-7.920;2023-07-13T01:55:43;96604.78;;;15.28;100.00
60874;BME280;46715;40.642;-7.920;2023-07-13T01:57:43;96612.09;;;15.31;100.00
60874;BME280;46715;40.642;-7.920;2023-07-13T01:59:44;96609.38;;;15.36;100.00
60874;BME280;46715;40.642;-7.920;2023-07-13T02:01:45;96605.47;;;15.33;100.00
60874;BME280;46715;40.642;-7.920;2023-07-13T02:03:46;96610.69;;;15.20;100.00
60874;BME280;46715;40.642;-7.920;2023-07-13T02:05:49;96610.88;;;15.09;100.00
60874;BME280;46715;40.642;-7.920;2023-07-13T02:07:50;96623.03;;;15.05;100.00
60874;BME280;46715;40.642;-7.920;2023-07-13T02:09:50;96625.06;;;15.08;100.00
60874;BME280;46715;40.642;-7.920;2023-07-13T02:11:51;96614.56;;;15.08;100.00
60874;BME280;46715;40.642;-7.920;2023-07-13T02:13:52;96620.09;;;15.07;100.00
60874;BME280;46715;40.642;-7.920;2023-07-13T02:15:53;96609.97;;;15.00;100.00
60874;BME280;46715;40.642;-7.920;2023-07-13T02:17:53;96608.69;;;14.97;100.00
60874;BME280;46715;40.642;-7.920;2023-07-13T02:19:54;96604.22;;;14.98;100.00
60874;BME280;46715;40.642;-7.920;2023-07-13T02:21:55;96602.84;;;15.00;100.00
60874;BME280;46715;40.642;-7.920;2023-07-13T02:23:56;96605.97;;;15.03;100.00
60874;BME280;46715;40.642;-7.920;2023-07-13T02:25:58;96601.09;;;14.96;100.00
60874;BME280;46715;40.642;-7.920;2023-07-13T02:27:59;96604.66;;;14.86;100.00
60874;BME280;46715;40.642;-7.920;2023-07-13T02:30:00;96606.00;;;14.83;100.00
60874;BME280;46715;40.642;-7.920;2023-07-13T02:32:01;96615.50;;;14.79;100.00
60874;BME280;46715;40.642;-7.920;2023-07-13T02:34:02;96618.41;;;14.78;100.00
60874;BME280;46715;40.642;-7.920;2023-07-13T02:36:04;96613.16;;;14.78;100.00
60874;BME280;46715;40.642;-7.920;2023-07-13T02:38:08;96613.47;;;14.76;100.00
60874;BME280;46715;40.642;-7.920;2023-07-13T02:40:09;96609.56;;;14.74;100.00
60874;BME280;46715;40.642;-7.920;2023-07-13T02:42:10;96609.56;;;14.74;100.00
60874;BME280;46715;40.642;-7.920;2023-07-13T02:44:15;96613.03;;;14.69;100.00
60874;BME280;46715;40.642;-7.920;2023-07-13T02:46:15;96612.25;;;14.69;100.00
60874;BME280;46715;40.642;-7.920;2023-07-13T02:48:16;96615.38;;;14.71;100.00
60874;BME280;46715;40.642;-7.920;2023-07-13T02:50:17;96622.19;;;14.72;100.00
60874;BME280;46715;40.642;-7.920;2023-07-13T02:52:18;96614.38;;;14.66;100.00
60874;BME280;46715;40.642;-7.920;2023-07-13T02:54:19;96606.53;;;14.61;100.00
60874;BME280;46715;40.642;-7.920;2023-07-13T02:56:25;96614.22;;;14.58;100.00
60874;BME280;46715;40.642;-7.920;2023-07-13T02:58:27;96606.13;;;14.54;100.00
60874;BME280;46715;40.642;-7.920;2023-07-13T03:00:28;96616.63;;;14.54;100.00
60874;BME280;46715;40.642;-7.920;2023-07-13T03:02:28;96613.22;;;14.54;100.00
60874;BME280;46715;40.642;-7.920;2023-07-13T03:04:31;96607.19;;;14.53;100.00
60874;BME280;46715;40.642;-7.920;2023-07-13T03:06:32;96602.50;;;14.50;100.00
60874;BME280;46715;40.642;-7.920;2023-07-13T03:08:34;96609.66;;;14.44;100.00
60874;BME280;46715;40.642;-7.920;2023-07-13T03:10:35;96617.31;;;14.41;100.00
60874;BME280;46715;40.642;-7.920;2023-07-13T03:12:36;96604.47;;;14.39;100.00
60874;BME280;46715;40.642;-7.920;2023-07-13T03:14:39;96611.59;;;14.39;100.00
60874;BME280;46715;40.642;-7.920;2023-07-13T03:16:41;96606.34;;;14.39;100.00
60874;BME280;46715;40.642;-7.920;2023-07-13T03:18:42;96606.28;;;14.44;100.00
60874;BME280;46715;40.642;-7.920;2023-07-13T03:20:45;96610.38;;;14.50;100.00
60874;BME280;46715;40.642;-7.920;2023-07-13T03:22:46;96602.03;;;14.67;100.00
60874;BME280;46715;40.642;-7.920;2023-07-13T03:24:48;96607.78;;;14.69;100.00
60874;BME280;46715;40.642;-7.920;2023-07-13T03:26:49;96598.63;;;14.66;100.00
60874;BME280;46715;40.642;-7.920;2023-07-13T03:28:52;96604.72;;;14.62;100.00
60874;BME280;46715;40.642;-7.920;2023-07-13T03:31:22;96613.94;;;14.59;100.00
60874;BME280;46715;40.642;-7.920;2023-07-13T03:33:25;96611.13;;;14.75;100.00
60874;BME280;46715;40.642;-7.920;2023-07-13T03:35:25;96615.03;;;14.77;100.00
60874;BME280;46715;40.642;-7.920;2023-07-13T03:37:26;96613.16;;;14.78;100.00
60874;BME280;46715;40.642;-7.920;2023-07-13T03:39:27;96611.13;;;14.75;100.00
60874;BME280;46715;40.642;-7.920;2023-07-13T03:41:31;96603.72;;;14.77;100.00
60874;BME280;46715;40.642;-7.920;2023-07-13T03:43:32;96608.19;;;14.95;100.00
60874;BME280;46715;40.642;-7.920;2023-07-13T03:45:33;96606.09;;;15.11;100.00
60874;BME280;46715;40.642;-7.920;2023-07-13T03:47:34;96609.94;;;15.19;100.00
60874;BME280;46715;40.642;-7.920;2023-07-13T03:49:38;96605.03;;;15.12;100.00
60874;BME280;46715;40.642;-7.920;2023-07-13T03:51:39;96608.03;;;15.06;100.00
60874;BME280;46715;40.642;-7.920;2023-07-13T03:53:43;96601.31;;;14.99;100.00
60874;BME280;46715;40.642;-7.920;2023-07-13T03:55:46;96602.25;;;14.90;100.00
60874;BME280;46715;40.642;-7.920;2023-07-13T03:57:47;96600.97;;;14.87;100.00
60874;BME280;46715;40.642;-7.920;2023-07-13T03:59:49;96605.16;;;14.88;100.00
60874;BME280;46715;40.642;-7.920;2023-07-13T04:01:50;96605.00;;;14.98;100.00
60874;BME280;46715;40.642;-7.920;2023-07-13T04:03:51;96605.28;;;14.97;100.00
60874;BME280;46715;40.642;-7.920;2023-07-13T04:05:56;96598.81;;;14.89;100.00
60874;BME280;46715;40.642;-7.920;2023-07-13T04:08:00;96608.16;;;14.81;100.00
60874;BME280;46715;40.642;-7.920;2023-07-13T04:10:01;96615.59;;;14.74;100.00
60874;BME280;46715;40.642;-7.920;2023-07-13T04:12:02;96618.88;;;14.66;100.00
60874;BME280;46715;40.642;-7.920;2023-07-13T04:14:03;96622.94;;;14.53;100.00
60874;BME280;46715;40.642;-7.920;2023-07-13T04:16:05;96614.69;;;14.41;100.00
60874;BME280;46715;40.642;-7.920;2023-07-13T04:18:06;96610.88;;;14.33;100.00
60874;BME280;46715;40.642;-7.920;2023-07-13T04:20:07;96619.66;;;14.23;100.00
60874;BME280;46715;40.642;-7.920;2023-07-13T04:22:08;96609.00;;;14.14;100.00
60874;BME280;46715;40.642;-7.920;2023-07-13T04:24:08;96616.13;;;14.09;100.00
60874;BME280;46715;40.642;-7.920;2023-07-13T04:26:09;96622.28;;;13.99;100.00
60874;BME280;46715;40.642;-7.920;2023-07-13T04:28:10;96623.69;;;13.91;100.00
60874;BME280;46715;40.642;-7.920;2023-07-13T04:30:11;96626.34;;;13.86;100.00
60874;BME280;46715;40.642;-7.920;2023-07-13T04:32:11;96618.00;;;13.84;100.00
60874;BME280;46715;40.642;-7.920;2023-07-13T04:34:13;96627.69;;;13.84;100.00
60874;BME280;46715;40.642;-7.920;2023-07-13T04:36:15;96622.50;;;13.78;100.00
60874;BME280;46715;40.642;-7.920;2023-07-13T04:38:16;96616.47;;;13.78;100.00
60874;BME280;46715;40.642;-7.920;2023-07-13T04:40:18;96621.22;;;13.76;100.00
60874;BME280;46715;40.642;-7.920;2023-07-13T04:42:19;96629.84;;;13.76;100.00
60874;BME280;46715;40.642;-7.920;2023-07-13T04:44:20;96633.00;;;13.78;100.00
60874;BME280;46715;40.642;-7.920;2023-07-13T04:46:20;96631.91;;;13.79;100.00
60874;BME280;46715;40.642;-7.920;2023-07-13T04:48:22;96639.09;;;13.98;100.00
60874;BME280;46715;40.642;-7.920;2023-07-13T04:50:23;96633.38;;;13.91;100.00
60874;BME280;46715;40.642;-7.920;2023-07-13T04:52:24;96640.69;;;13.94;100.00
60874;BME280;46715;40.642;-7.920;2023-07-13T04:54:28;96641.22;;;13.91;100.00
60874;BME280;46715;40.642;-7.920;2023-07-13T04:56:28;96642.59;;;13.88;100.00
60874;BME280;46715;40.642;-7.920;2023-07-13T04:58:30;96640.97;;;13.92;100.00
60874;BME280;46715;40.642;-7.920;2023-07-13T05:00:32;96638.34;;;13.92;100.00
60874;BME280;46715;40.642;-7.920;2023-07-13T05:02:33;96642.25;;;13.95;100.00
60874;BME280;46715;40.642;-7.920;2023-07-13T05:04:35;96640.38;;;14.01;100.00
60874;BME280;46715;40.642;-7.920;2023-07-13T05:06:36;96647.66;;;14.04;100.00
60874;BME280;46715;40.642;-7.920;2023-07-13T05:08:37;96646.59;;;14.05;100.00
60874;BME280;46715;40.642;-7.920;2023-07-13T05:10:38;96655.75;;;14.07;100.00
60874;BME280;46715;40.642;-7.920;2023-07-13T05:12:39;96648.56;;;14.18;100.00
60874;BME280;46715;40.642;-7.920;2023-07-13T05:14:39;96646.53;;;14.10;100.00
60874;BME280;46715;40.642;-7.920;2023-07-13T05:16:40;96653.41;;;14.06;100.00
60874;BME280;46715;40.642;-7.920;2023-07-13T05:18:41;96650.56;;;14.02;100.00
60874;BME280;46715;40.642;-7.920;2023-07-13T05:20:42;96653.47;;;14.01;100.00
60874;BME280;46715;40.642;-7.920;2023-07-13T05:22:43;96667.56;;;14.05;100.00
60874;BME280;46715;40.642;-7.920;2023-07-13T05:24:44;96655.25;;;14.05;100.00
60874;BME280;46715;40.642;-7.920;2023-07-13T05:26:44;96660.00;;;14.27;100.00
60874;BME280;46715;40.642;-7.920;2023-07-13T05:28:45;96652.69;;;14.24;100.00
60874;BME280;46715;40.642;-7.920;2023-07-13T05:30:47;96658.19;;;14.23;100.00
60874;BME280;46715;40.642;-7.920;2023-07-13T05:32:48;96659.03;;;14.42;100.00
60874;BME280;46715;40.642;-7.920;2023-07-13T05:34:49;96654.28;;;14.44;100.00
60874;BME280;46715;40.642;-7.920;2023-07-13T05:36:50;96661.38;;;14.44;100.00
60874;BME280;46715;40.642;-7.920;2023-07-13T05:38:51;96655.31;;;14.43;100.00
60874;BME280;46715;40.642;-7.920;2023-07-13T05:40:54;96654.94;;;14.55;100.00
60874;BME280;46715;40.642;-7.920;2023-07-13T05:42:55;96660.94;;;14.56;100.00
60874;BME280;46715;40.642;-7.920;2023-07-13T05:44:58;96658.00;;;14.62;100.00
60874;BME280;46715;40.642;-7.920;2023-07-13T05:46:59;96666.03;;;14.71;100.00
60874;BME280;46715;40.642;-7.920;2023-07-13T05:48:59;96669.66;;;14.75;100.00
60874;BME280;46715;40.642;-7.920;2023-07-13T05:51:01;96668.72;;;14.85;100.00
60874;BME280;46715;40.642;-7.920;2023-07-13T05:53:02;96672.00;;;14.96;100.00
60874;BME280;46715;40.642;-7.920;2023-07-13T05:55:03;96669.59;;;14.99;100.00
60874;BME280;46715;40.642;-7.920;2023-07-13T05:57:04;96670.00;;;15.07;100.00
60874;BME280;46715;40.642;-7.920;2023-07-13T05:59:05;96675.88;;;15.17;100.00
60874;BME280;46715;40.642;-7.920;2023-07-13T06:01:10;96678.34;;;15.28;100.00
60874;BME280;46715;40.642;-7.920;2023-07-13T06:03:11;96688.78;;;15.33;100.00
60874;BME280;46715;40.642;-7.920;2023-07-13T06:05:12;96683.88;;;15.45;100.00
60874;BME280;46715;40.642;-7.920;2023-07-13T06:07:14;96685.44;;;15.46;100.00
60874;BME280;46715;40.642;-7.920;2023-07-13T06:09:15;96682.41;;;15.53;100.00
60874;BME280;46715;40.642;-7.920;2023-07-13T06:11:21;96681.19;;;15.64;100.00
60874;BME280;46715;40.642;-7.920;2023-07-13T06:13:22;96683.44;;;15.71;100.00
60874;BME280;46715;40.642;-7.920;2023-07-13T06:15:23;96684.63;;;15.79;100.00
60874;BME280;46715;40.642;-7.920;2023-07-13T06:17:24;96677.38;;;15.90;100.00
60874;BME280;46715;40.642;-7.920;2023-07-13T06:19:25;96678.16;;;16.04;100.00
60874;BME280;46715;40.642;-7.920;2023-07-13T06:21:25;96680.09;;;16.12;100.00
60874;BME280;46715;40.642;-7.920;2023-07-13T06:23:26;96683.63;;;16.22;100.00
60874;BME280;46715;40.642;-7.920;2023-07-13T06:25:27;96695.50;;;16.33;100.00
60874;BME280;46715;40.642;-7.920;2023-07-13T06:27:28;96690.16;;;16.38;100.00
60874;BME280;46715;40.642;-7.920;2023-07-13T06:29:28;96680.09;;;16.54;100.00
60874;BME280;46715;40.642;-7.920;2023-07-13T06:31:29;96686.91;;;16.69;99.19
60874;BME280;46715;40.642;-7.920;2023-07-13T06:33:30;96692.53;;;16.90;97.96
60874;BME280;46715;40.642;-7.920;2023-07-13T06:35:31;96695.88;;;17.04;98.35
60874;BME280;46715;40.642;-7.920;2023-07-13T06:37:32;96691.97;;;17.38;97.56
60874;BME280;46715;40.642;-7.920;2023-07-13T06:39:35;96701.06;;;17.86;94.38
60874;BME280;46715;40.642;-7.920;2023-07-13T06:41:35;96691.91;;;18.15;91.60
60874;BME280;46715;40.642;-7.920;2023-07-13T06:43:37;96694.78;;;18.36;89.51
60874;BME280;46715;40.642;-7.920;2023-07-13T06:45:43;96695.03;;;18.75;86.60
60874;BME280;46715;40.642;-7.920;2023-07-13T06:47:46;96694.22;;;19.71;83.99
60874;BME280;46715;40.642;-7.920;2023-07-13T06:49:47;96684.03;;;20.68;78.93
60874;BME280;46715;40.642;-7.920;2023-07-13T06:51:48;96683.22;;;21.52;73.49
60874;BME280;46715;40.642;-7.920;2023-07-13T06:53:49;96687.06;;;22.00;69.66
60874;BME280;46715;40.642;-7.920;2023-07-13T06:55:50;96686.91;;;22.42;67.92
60874;BME280;46715;40.642;-7.920;2023-07-13T06:57:52;96682.00;;;22.57;66.31
60874;BME280;46715;40.642;-7.920;2023-07-13T06:59:52;96686.84;;;21.93;65.86
60874;BME280;46715;40.642;-7.920;2023-07-13T07:01:53;96694.34;;;21.11;69.00
60874;BME280;46715;40.642;-7.920;2023-07-13T07:03:54;96696.94;;;20.09;72.99
60874;BME280;46715;40.642;-7.920;2023-07-13T07:06:01;96698.44;;;19.54;76.11
60874;BME280;46715;40.642;-7.920;2023-07-13T07:08:01;96700.22;;;19.24;78.93
60874;BME280;46715;40.642;-7.920;2023-07-13T07:10:02;96694.28;;;19.36;78.92
60874;BME280;46715;40.642;-7.920;2023-07-13T07:12:03;96694.59;;;19.52;78.16
60874;BME280;46715;40.642;-7.920;2023-07-13T07:14:05;96692.97;;;19.68;78.00
60874;BME280;46715;40.642;-7.920;2023-07-13T07:16:06;96698.06;;;20.00;77.04
60874;BME280;46715;40.642;-7.920;2023-07-13T07:18:07;96704.28;;;20.04;76.03
60874;BME280;46715;40.642;-7.920;2023-07-13T07:20:08;96692.84;;;20.21;75.46
60874;BME280;46715;40.642;-7.920;2023-07-13T07:22:09;96697.56;;;20.45;74.77
60874;BME280;46715;40.642;-7.920;2023-07-13T07:24:10;96701.53;;;20.60;73.65
60874;BME280;46715;40.642;-7.920;2023-07-13T07:26:11;96698.59;;;20.83;72.33
60874;BME280;46715;40.642;-7.920;2023-07-13T07:28:15;96698.34;;;21.51;70.07
60874;BME280;46715;40.642;-7.920;2023-07-13T07:30:18;96704.09;;;21.87;67.07
60874;BME280;46715;40.642;-7.920;2023-07-13T07:32:19;96704.47;;;21.64;67.59
60874;BME280;46715;40.642;-7.920;2023-07-13T07:34:20;96707.16;;;21.43;68.15
60874;BME280;46715;40.642;-7.920;2023-07-13T07:36:21;96708.38;;;21.45;67.96
60874;BME280;46715;40.642;-7.920;2023-07-13T07:38:22;96714.16;;;21.48;68.17
60874;BME280;46715;40.642;-7.920;2023-07-13T07:40:22;96707.06;;;21.73;66.33
60874;BME280;46715;40.642;-7.920;2023-07-13T07:42:23;96701.28;;;21.71;65.36
60874;BME280;46715;40.642;-7.920;2023-07-13T07:44:24;96696.94;;;22.00;65.57
60874;BME280;46715;40.642;-7.920;2023-07-13T07:46:25;96699.06;;;22.19;65.01
60874;BME280;46715;40.642;-7.920;2023-07-13T07:48:26;96690.06;;;22.85;62.30
60874;BME280;46715;40.642;-7.920;2023-07-13T07:50:28;96685.88;;;23.41;60.32
60874;BME280;46715;40.642;-7.920;2023-07-13T07:52:29;96674.47;;;24.52;57.00
60874;BME280;46715;40.642;-7.920;2023-07-13T07:54:30;96685.53;;;25.68;54.97
60874;BME280;46715;40.642;-7.920;2023-07-13T07:56:31;96679.28;;;26.30;51.29
60874;BME280;46715;40.642;-7.920;2023-07-13T07:58:32;96669.66;;;27.09;48.54
60874;BME280;46715;40.642;-7.920;2023-07-13T08:00:33;96667.16;;;28.06;46.54
60874;BME280;46715;40.642;-7.920;2023-07-13T08:02:35;96662.81;;;29.27;43.68
60874;BME280;46715;40.642;-7.920;2023-07-13T08:04:38;96656.38;;;29.97;40.45
60874;BME280;46715;40.642;-7.920;2023-07-13T08:06:39;96664.22;;;31.08;39.85
60874;BME280;46715;40.642;-7.920;2023-07-13T08:08:39;96662.03;;;32.08;37.71
60874;BME280;46715;40.642;-7.920;2023-07-13T08:10:40;96652.00;;;32.85;35.86
60874;BME280;46715;40.642;-7.920;2023-07-13T08:12:45;96649.81;;;33.04;34.84
60874;BME280;46715;40.642;-7.920;2023-07-13T08:14:49;96649.03;;;33.61;34.32
60874;BME280;46715;40.642;-7.920;2023-07-13T08:16:49;96652.63;;;34.26;32.26
60874;BME280;46715;40.642;-7.920;2023-07-13T08:18:50;96653.66;;;34.56;31.06
60874;BME280;46715;40.642;-7.920;2023-07-13T08:20:51;96653.88;;;34.45;30.95
60874;BME280;46715;40.642;-7.920;2023-07-13T08:22:52;96651.72;;;34.36;30.22
60874;BME280;46715;40.642;-7.920;2023-07-13T08:24:53;96649.97;;;33.78;30.77
60874;BME280;46715;40.642;-7.920;2023-07-13T08:26:56;96649.75;;;33.93;30.69
60874;BME280;46715;40.642;-7.920;2023-07-13T08:28:57;96648.72;;;34.51;29.57
60874;BME280;46715;40.642;-7.920;2023-07-13T08:31:03;96642.59;;;35.23;28.52
60874;BME280;46715;40.642;-7.920;2023-07-13T08:33:04;96643.78;;;35.59;28.36
60874;BME280;46715;40.642;-7.920;2023-07-13T08:35:05;96637.66;;;36.04;28.59
60874;BME280;46715;40.642;-7.920;2023-07-13T08:37:07;96634.84;;;36.08;28.39
60874;BME280;46715;40.642;-7.920;2023-07-13T08:39:07;96628.50;;;36.27;26.18
60874;BME280;46715;40.642;-7.920;2023-07-13T08:41:12;96626.72;;;36.37;26.59
60874;BME280;46715;40.642;-7.920;2023-07-13T08:43:19;96626.66;;;36.54;24.89
60874;BME280;46715;40.642;-7.920;2023-07-13T08:45:22;96622.53;;;36.49;25.33
60874;BME280;46715;40.642;-7.920;2023-07-13T08:47:24;96627.03;;;36.68;25.09
60874;BME280;46715;40.642;-7.920;2023-07-13T08:49:26;96627.50;;;35.59;24.65
60874;BME280;46715;40.642;-7.920;2023-07-13T08:51:45;96631.13;;;35.36;25.55
60874;BME280;46715;40.642;-7.920;2023-07-13T08:53:50;96620.28;;;36.01;23.89
60874;BME280;46715;40.642;-7.920;2023-07-13T08:55:59;96620.69;;;36.46;23.04
60874;BME280;46715;40.642;-7.920;2023-07-13T08:58:10;96621.16;;;36.70;21.60
60874;BME280;46715;40.642;-7.920;2023-07-13T09:00:12;96613.19;;;36.21;21.12
60874;BME280;46715;40.642;-7.920;2023-07-13T09:02:28;96614.44;;;36.32;20.17
60874;BME280;46715;40.642;-7.920;2023-07-13T09:09:27;96612.09;;;36.47;19.91
60874;BME280;46715;40.642;-7.920;2023-07-13T09:11:49;96613.53;;;36.65;19.84
60874;BME280;46715;40.642;-7.920;2023-07-13T09:16:16;96607.56;;;35.65;20.83
60874;BME280;46715;40.642;-7.920;2023-07-13T09:20:37;96612.75;;;35.93;20.61
60874;BME280;46715;40.642;-7.920;2023-07-13T09:22:42;96616.66;;;36.21;20.17
60874;BME280;46715;40.642;-7.920;2023-07-13T09:24:57;96613.19;;;36.21;20.56
60874;BME280;46715;40.642;-7.920;2023-07-13T09:27:01;96609.03;;;36.16;19.99
60874;BME280;46715;40.642;-7.920;2023-07-13T09:29:12;96611.19;;;35.26;19.97
60874;BME280;46715;40.642;-7.920;2023-07-13T09:31:26;96622.69;;;35.66;19.72
60874;BME280;46715;40.642;-7.920;2023-07-13T09:33:30;96627.84;;;35.61;20.12
60874;BME280;46715;40.642;-7.920;2023-07-13T09:35:31;96619.00;;;35.90;19.87
60874;BME280;46715;40.642;-7.920;2023-07-13T09:37:33;96615.25;;;36.46;19.82
60874;BME280;46715;40.642;-7.920;2023-07-13T09:39:42;96618.94;;;36.52;18.67
60874;BME280;46715;40.642;-7.920;2023-07-13T09:41:54;96616.03;;;36.59;19.32
60874;BME280;46715;40.642;-7.920;2023-07-13T09:44:07;96622.38;;;36.10;19.84
60874;BME280;46715;40.642;-7.920;2023-07-13T09:46:21;96623.22;;;36.79;19.57
60874;BME280;46715;40.642;-7.920;2023-07-13T09:48:22;96622.84;;;36.51;19.33
60874;BME280;46715;40.642;-7.920;2023-07-13T09:50:25;96622.66;;;36.58;19.73
60874;BME280;46715;40.642;-7.920;2023-07-13T09:52:27;96624.34;;;36.39;18.70
60874;BME280;46715;40.642;-7.920;2023-07-13T09:54:28;96619.47;;;36.17;18.48
60874;BME280;46715;40.642;-7.920;2023-07-13T09:56:29;96621.81;;;35.70;18.94
60874;BME280;46715;40.642;-7.920;2023-07-13T09:58:30;96620.25;;;34.62;19.75
60874;BME280;46715;40.642;-7.920;2023-07-13T10:00:32;96615.97;;;35.71;18.76
60874;BME280;46715;40.642;-7.920;2023-07-13T10:02:35;96616.81;;;36.30;18.94
60874;BME280;46715;40.642;-7.920;2023-07-13T10:04:36;96618.34;;;36.74;18.86
60874;BME280;46715;40.642;-7.920;2023-07-13T10:06:37;96615.47;;;37.19;18.71
60874;BME280;46715;40.642;-7.920;2023-07-13T10:08:39;96615.69;;;37.38;19.73
60874;BME280;46715;40.642;-7.920;2023-07-13T10:10:40;96622.09;;;37.18;21.00
60874;BME280;46715;40.642;-7.920;2023-07-13T10:12:41;96615.13;;;36.20;21.57
60874;BME280;46715;40.642;-7.920;2023-07-13T10:14:47;96615.78;;;36.41;21.32
60874;BME280;46715;40.642;-7.920;2023-07-13T10:16:50;96616.88;;;37.24;20.75
60874;BME280;46715;40.642;-7.920;2023-07-13T10:18:58;96613.16;;;37.57;19.88
60874;BME280;46715;40.642;-7.920;2023-07-13T10:21:11;96616.56;;;37.22;19.86
60874;BME280;46715;40.642;-7.920;2023-07-13T10:23:21;96610.56;;;37.53;19.45
60874;BME280;46715;40.642;-7.920;2023-07-13T10:25:26;96614.38;;;37.30;19.93
60874;BME280;46715;40.642;-7.920;2023-07-13T10:27:35;96609.59;;;37.34;18.04
60874;BME280;46715;40.642;-7.920;2023-07-13T10:29:39;96604.25;;;37.05;17.84
60874;BME280;46715;40.642;-7.920;2023-07-13T10:31:44;96609.91;;;37.10;18.47
60874;BME280;46715;40.642;-7.920;2023-07-13T10:33:45;96603.47;;;36.91;18.64
60874;BME280;46715;40.642;-7.920;2023-07-13T10:35:47;96606.78;;;36.27;18.79
60874;BME280;46715;40.642;-7.920;2023-07-13T10:39:59;96604.72;;;36.61;18.95
60874;BME280;46715;40.642;-7.920;2023-07-13T10:42:04;96607.63;;;37.22;19.48
60874;BME280;46715;40.642;-7.920;2023-07-13T10:44:16;96606.00;;;37.50;18.82
60874;BME280;46715;40.642;-7.920;2023-07-13T10:46:24;96611.75;;;37.52;19.33